createdAt,value
2023-11-07T00:01:36.585Z,2.87
2023-11-07T00:04:05.614Z,2.60
2023-11-07T00:06:33.965Z,3.40
2023-11-07T00:09:02.508Z,3.07
2023-11-07T00:11:30.912Z,3.30
2023-11-07T00:13:59.142Z,2.73
2023-11-07T00:16:29.022Z,2.63
2023-11-07T00:18:57.856Z,2.20
2023-11-07T00:21:26.265Z,2.40
2023-11-07T00:23:54.546Z,2.80
2023-11-07T00:26:23.342Z,3.23
2023-11-07T00:28:53.063Z,2.97
2023-11-07T00:31:21.341Z,2.93
2023-11-07T00:33:51.382Z,2.67
2023-11-07T00:36:19.862Z,2.67
2023-11-07T00:38:48.215Z,2.60
2023-11-07T00:41:16.426Z,3.20
2023-11-07T00:43:45.247Z,2.50
2023-11-07T00:46:13.625Z,3.17
2023-11-07T00:48:42.829Z,2.50
2023-11-07T00:51:13.009Z,2.77
2023-11-07T00:53:41.469Z,3.00
2023-11-07T00:56:10.280Z,3.60
2023-11-07T00:58:38.604Z,3.80
2023-11-07T01:01:07.178Z,3.50
2023-11-07T01:03:35.578Z,2.83
2023-11-07T01:06:03.940Z,2.93
2023-11-07T01:08:34.218Z,2.90
2023-11-07T01:11:02.512Z,3.30
2023-11-07T01:13:30.780Z,2.80
2023-11-07T01:15:59.068Z,2.93
2023-11-07T01:18:27.432Z,3.00
2023-11-07T01:20:55.784Z,3.10
2023-11-07T01:23:26.449Z,3.03
2023-11-07T01:25:56.236Z,3.17
2023-11-07T01:28:24.564Z,3.20
2023-11-07T01:30:52.772Z,2.90
2023-11-07T01:33:21.101Z,3.30
2023-11-07T01:35:49.669Z,3.00
2023-11-07T01:38:17.905Z,4.20
2023-11-07T01:40:46.158Z,3.50
2023-11-07T01:43:16.958Z,3.10
2023-11-07T01:45:46.149Z,3.67
2023-11-07T01:48:15.680Z,3.40
2023-11-07T01:50:44.113Z,2.73
2023-11-07T01:53:13.127Z,3.00
2023-11-07T01:55:43.578Z,3.60
2023-11-07T01:58:12.442Z,3.60
2023-11-07T02:00:45.146Z,2.70
2023-11-07T02:03:13.737Z,3.43
2023-11-07T02:05:43.321Z,3.10
2023-11-07T02:08:11.721Z,3.10
2023-11-07T02:10:40.138Z,2.97
2023-11-07T02:13:08.345Z,2.73
2023-11-07T02:15:39.451Z,3.03
2023-11-07T02:18:09.321Z,3.00
2023-11-07T02:20:38.225Z,2.93
2023-11-07T02:23:10.515Z,2.90
2023-11-07T02:25:40.752Z,3.00
2023-11-07T02:28:09.878Z,3.10
2023-11-07T02:30:38.263Z,2.97
2023-11-07T02:33:06.825Z,3.10
2023-11-07T02:35:35.248Z,3.17
2023-11-07T02:38:04.136Z,3.43
2023-11-07T02:40:32.529Z,2.93
2023-11-07T02:43:03.787Z,3.43
2023-11-07T02:45:32.063Z,3.63
2023-11-07T02:48:00.543Z,3.50
2023-11-07T02:50:29.200Z,3.00
2023-11-07T02:52:57.836Z,3.50
2023-11-07T02:55:26.089Z,3.57
2023-11-07T02:57:54.453Z,3.73
2023-11-07T03:00:24.357Z,3.83
2023-11-07T03:02:53.832Z,4.00
2023-11-07T03:05:22.145Z,4.83
2023-11-07T03:07:50.372Z,4.00
2023-11-07T03:10:18.797Z,4.33
2023-11-07T03:12:48.479Z,5.07
2023-11-07T03:15:17.157Z,4.67
2023-11-07T03:17:47.859Z,5.17
2023-11-07T03:20:17.932Z,5.17
2023-11-07T03:22:46.276Z,5.20
2023-11-07T03:25:14.701Z,5.30
2023-11-07T03:27:42.913Z,5.23
2023-11-07T03:30:11.982Z,6.10
2023-11-07T03:32:40.345Z,5.80
2023-11-07T03:35:10.804Z,6.03
2023-11-07T03:37:40.906Z,6.53
2023-11-07T03:40:10.033Z,6.13
2023-11-07T03:42:38.340Z,6.00
2023-11-07T03:45:07.751Z,6.40
2023-11-07T03:47:36.563Z,6.83
2023-11-07T03:50:05.176Z,6.93
2023-11-07T03:52:34.898Z,6.07
2023-11-07T03:55:04.446Z,6.57
2023-11-07T03:57:33.112Z,6.27
2023-11-07T04:00:01.382Z,6.03
2023-11-07T04:02:30.589Z,6.40
2023-11-07T04:04:58.947Z,5.57
2023-11-07T04:07:27.204Z,5.63
2023-11-07T04:09:57.922Z,6.47
2023-11-07T04:12:26.473Z,6.43
2023-11-07T04:14:55.983Z,5.97
2023-11-07T04:17:24.284Z,6.80
2023-11-07T04:19:53.581Z,6.07
2023-11-07T04:22:21.803Z,5.20
2023-11-07T04:24:50.030Z,5.53
2023-11-07T04:27:20.072Z,5.57
2023-11-07T04:29:48.444Z,5.70
2023-11-07T04:32:16.833Z,6.17
2023-11-07T04:34:45.220Z,4.80
2023-11-07T04:37:13.504Z,5.73
2023-11-07T04:39:42.192Z,5.20
2023-11-07T04:42:10.510Z,5.57
2023-11-07T04:44:40.920Z,6.00
2023-11-07T04:47:10.976Z,6.40
2023-11-07T04:49:41.263Z,7.40
2023-11-07T04:52:09.586Z,6.63
2023-11-07T04:54:40.034Z,6.13
2023-11-07T04:57:08.651Z,6.63
2023-11-07T04:59:38.015Z,6.93
2023-11-07T05:02:07.909Z,6.23
2023-11-07T05:04:36.303Z,5.90
2023-11-07T05:07:04.782Z,6.60
2023-11-07T05:09:33.050Z,7.00
2023-11-07T05:12:01.965Z,6.83
2023-11-07T05:14:30.761Z,6.57
2023-11-07T05:16:59.083Z,5.90
2023-11-07T05:19:28.735Z,5.93
2023-11-07T05:21:57.397Z,4.90
2023-11-07T05:24:25.611Z,5.83
2023-11-07T05:26:53.921Z,5.30
2023-11-07T05:29:22.187Z,5.50
2023-11-07T05:31:50.461Z,5.30
2023-11-07T05:34:18.979Z,6.03
2023-11-07T05:36:49.029Z,6.77
2023-11-07T05:39:17.868Z,6.70
2023-11-07T05:41:46.151Z,6.93
2023-11-07T05:44:14.420Z,8.40
2023-11-07T05:46:42.740Z,8.93
2023-11-07T05:49:12.042Z,7.50
2023-11-07T05:51:40.399Z,8.17
2023-11-07T05:54:10.770Z,9.80
2023-11-07T05:56:39.146Z,7.17
2023-11-07T05:59:08.741Z,8.00
2023-11-07T06:01:37.117Z,7.97
2023-11-07T06:04:10.189Z,9.20
2023-11-07T06:06:38.663Z,7.90
2023-11-07T06:09:08.105Z,7.07
2023-11-07T06:11:37.775Z,8.37
2023-11-07T06:14:06.310Z,10.07
2023-11-07T06:16:34.550Z,7.90
2023-11-07T06:19:03.061Z,8.80
2023-11-07T06:21:31.406Z,8.53
2023-11-07T06:23:59.717Z,9.83
2023-11-07T06:26:27.968Z,9.23
2023-11-07T06:28:57.804Z,9.40
2023-11-07T06:31:26.566Z,8.07
2023-11-07T06:33:55.176Z,9.07
2023-11-07T06:36:25.377Z,9.17
2023-11-07T06:38:54.219Z,9.20
2023-11-07T06:41:22.470Z,9.13
2023-11-07T06:43:51.687Z,10.17
2023-11-07T06:46:21.491Z,8.23
2023-11-07T06:48:50.496Z,8.80
2023-11-07T06:51:20.136Z,10.90
2023-11-07T06:53:48.872Z,10.40
2023-11-07T06:56:17.468Z,9.87
2023-11-07T06:58:46.783Z,9.23
2023-11-07T07:01:15.788Z,9.03
2023-11-07T07:03:45.583Z,9.33
2023-11-07T07:06:14.061Z,9.33
2023-11-07T07:08:42.821Z,8.87
2023-11-07T07:11:11.162Z,10.33
2023-11-07T07:13:39.484Z,9.30
2023-11-07T07:16:09.789Z,9.07
2023-11-07T07:18:40.680Z,8.40
2023-11-07T07:21:11.209Z,7.33
2023-11-07T07:23:43.414Z,7.90
2023-11-07T07:26:13.678Z,6.90
2023-11-07T07:28:42.206Z,8.57
2023-11-07T07:31:12.028Z,8.23
2023-11-07T07:33:43.092Z,6.70
2023-11-07T07:36:16.347Z,6.63
2023-11-07T07:38:44.799Z,6.57
2023-11-07T07:41:14.207Z,6.30
2023-11-07T07:43:43.822Z,6.00
2023-11-07T07:46:14.124Z,5.63
2023-11-07T07:48:43.507Z,6.00
2023-11-07T07:51:15.101Z,5.20
2023-11-07T07:53:44.446Z,4.90
2023-11-07T07:56:14.916Z,4.93
2023-11-07T07:58:44.214Z,4.90
2023-11-07T08:01:13.248Z,5.50
2023-11-07T08:03:42.706Z,4.60
2023-11-07T08:06:12.856Z,4.37
2023-11-07T08:08:42.635Z,4.00
2023-11-07T08:11:10.987Z,3.77
2023-11-07T08:13:39.240Z,3.40
2023-11-07T08:16:10.345Z,3.60
2023-11-07T08:18:40.337Z,3.43
2023-11-07T08:21:09.351Z,2.80
2023-11-07T08:23:37.798Z,4.50
2023-11-07T08:26:07.521Z,4.10
2023-11-07T08:28:37.124Z,3.50
2023-11-07T08:31:07.411Z,3.20
2023-11-07T08:33:39.108Z,4.20
2023-11-07T08:36:10.978Z,3.57
2023-11-07T08:38:41.031Z,2.97
2023-11-07T08:41:12.858Z,3.10
2023-11-07T08:43:41.166Z,3.43
2023-11-07T08:46:09.399Z,3.33
2023-11-07T08:48:37.733Z,2.97
2023-11-07T08:51:06.544Z,2.67
2023-11-07T08:53:36.236Z,3.20
2023-11-07T08:56:04.646Z,3.67
2023-11-07T08:58:34.935Z,3.00
2023-11-07T09:01:06.055Z,3.17
2023-11-07T09:03:35.193Z,3.10
2023-11-07T09:06:06.394Z,3.30
2023-11-07T09:08:35.170Z,3.57
2023-11-07T09:11:03.456Z,3.33
2023-11-07T09:13:31.963Z,3.03
2023-11-07T09:16:01.882Z,3.73
2023-11-07T09:18:30.264Z,3.53
2023-11-07T09:20:58.762Z,3.60
2023-11-07T09:23:27.818Z,3.67
2023-11-07T09:25:56.130Z,3.50
2023-11-07T09:28:27.969Z,3.33
2023-11-07T09:30:58.531Z,4.00
2023-11-07T09:33:28.371Z,3.50
2023-11-07T09:35:56.748Z,3.37
2023-11-07T09:40:53.657Z,3.60
2023-11-07T09:43:28.009Z,3.50
2023-11-07T09:46:01.170Z,2.73
2023-11-07T09:48:30.969Z,2.80
2023-11-07T09:51:00.455Z,3.10
2023-11-07T09:53:30.924Z,2.93
2023-11-07T09:56:01.296Z,2.70
2023-11-07T09:58:31.504Z,3.20
2023-11-07T10:01:00.184Z,3.00
2023-11-07T10:03:28.780Z,2.47
2023-11-07T10:06:01.921Z,2.50
2023-11-07T10:08:30.178Z,2.87
2023-11-07T10:11:10.898Z,2.10
2023-11-07T10:13:39.303Z,2.43
2023-11-07T10:18:51.338Z,3.10
2023-11-07T10:21:32.397Z,3.03
2023-11-07T10:24:01.245Z,3.97
2023-11-07T10:26:29.667Z,2.60
2023-11-07T10:29:18.074Z,2.67
2023-11-07T10:32:00.614Z,3.23
2023-11-07T10:34:29.115Z,3.10
2023-11-07T10:37:00.055Z,2.03
2023-11-07T10:39:30.129Z,2.57
2023-11-07T10:41:59.498Z,2.87
2023-11-07T10:44:30.595Z,2.77
2023-11-07T10:46:59.835Z,4.10
2023-11-07T10:49:32.296Z,2.30
2023-11-07T10:52:04.031Z,2.07
2023-11-07T10:54:32.543Z,2.20
2023-11-07T10:57:04.838Z,2.83
2023-11-07T10:59:36.217Z,2.10
2023-11-07T11:02:05.372Z,2.27
2023-11-07T11:04:36.805Z,2.20
2023-11-07T11:07:09.182Z,1.87
2023-11-07T11:09:39.944Z,2.23
2023-11-07T11:12:10.669Z,2.20
2023-11-07T11:14:39.022Z,1.97
2023-11-07T11:17:20.419Z,2.03
2023-11-07T11:19:57.545Z,1.90
2023-11-07T11:22:31.426Z,1.80
2023-11-07T11:25:10.563Z,1.60
2023-11-07T11:27:43.110Z,1.37
2023-11-07T11:30:13.288Z,1.67
2023-11-07T11:32:44.994Z,1.60
2023-11-07T11:35:34.807Z,1.23
2023-11-07T11:38:13.622Z,1.30
2023-11-07T11:40:56.181Z,1.30
2023-11-07T11:43:26.277Z,1.43
2023-11-07T11:45:56.811Z,1.30
2023-11-07T11:48:58.772Z,1.50
2023-11-07T11:51:37.600Z,1.80
2023-11-07T11:54:09.646Z,1.40
2023-11-07T11:57:07.607Z,1.03
2023-11-07T11:59:56.554Z,1.10
2023-11-07T12:02:37.862Z,1.50
2023-11-07T12:05:20.112Z,1.50
2023-11-07T12:07:50.066Z,1.20
2023-11-07T12:10:22.900Z,1.37
2023-11-07T12:12:59.293Z,1.23
2023-11-07T12:15:28.779Z,1.20
2023-11-07T12:17:57.176Z,1.40
2023-11-07T12:20:25.524Z,1.00
2023-11-07T12:22:53.779Z,1.50
2023-11-07T12:25:24.041Z,1.40
2023-11-07T12:28:04.758Z,0.90
2023-11-07T12:30:34.475Z,1.10
2023-11-07T12:33:05.869Z,1.17
2023-11-07T12:35:34.238Z,0.87
2023-11-07T12:38:04.954Z,0.83
2023-11-07T12:40:36.436Z,1.10
2023-11-07T12:43:08.473Z,1.10
2023-11-07T12:45:38.531Z,1.50
2023-11-07T12:48:11.037Z,1.30
2023-11-07T12:50:44.251Z,1.00
2023-11-07T12:53:13.794Z,1.43
2023-11-07T12:55:52.323Z,1.20
2023-11-07T12:58:29.393Z,0.90
2023-11-07T13:00:59.135Z,1.07
2023-11-07T13:03:34.711Z,1.07
2023-11-07T13:06:05.768Z,1.00
2023-11-07T13:08:35.894Z,0.90
2023-11-07T13:11:16.422Z,1.47
2023-11-07T13:13:46.403Z,1.40
2023-11-07T13:16:16.094Z,0.97
2023-11-07T13:18:49.544Z,1.20
2023-11-07T13:21:18.996Z,1.07
2023-11-07T13:23:48.500Z,0.83
2023-11-07T13:26:18.326Z,0.90
2023-11-07T13:28:46.743Z,1.30
2023-11-07T13:31:15.851Z,0.80
2023-11-07T13:33:46.813Z,0.90
2023-11-07T13:36:16.694Z,1.27
2023-11-07T13:38:47.896Z,0.90
2023-11-07T13:41:17.168Z,0.80
2023-11-07T13:43:46.919Z,0.80
2023-11-07T13:46:18.945Z,0.97
2023-11-07T13:48:49.927Z,0.90
2023-11-07T13:51:18.592Z,1.17
2023-11-07T13:53:46.867Z,0.80
2023-11-07T13:56:15.993Z,1.20
2023-11-07T13:58:44.925Z,1.13
2023-11-07T14:01:14.629Z,0.90
2023-11-07T14:03:43.081Z,1.07
2023-11-07T14:06:11.524Z,0.90
2023-11-07T14:08:39.830Z,0.83
2023-11-07T14:11:08.122Z,0.90
2023-11-07T14:13:36.420Z,1.03
2023-11-07T14:16:05.317Z,1.07
2023-11-07T14:18:35.050Z,1.17
2023-11-07T14:21:04.399Z,1.20
2023-11-07T14:23:34.379Z,1.40
2023-11-07T14:26:03.744Z,1.50
2023-11-07T14:28:31.986Z,1.33
2023-11-07T14:31:04.572Z,1.37
2023-11-07T14:33:34.591Z,1.20
2023-11-07T14:36:04.536Z,1.10
2023-11-07T14:38:35.585Z,1.30
2023-11-07T14:41:05.966Z,1.13
2023-11-07T14:43:34.661Z,0.97
2023-11-07T14:46:04.423Z,1.40
2023-11-07T14:48:34.260Z,0.87
2023-11-07T14:51:02.821Z,1.30
2023-11-07T14:53:31.369Z,1.10
2023-11-07T14:55:59.851Z,1.40
2023-11-07T14:58:28.270Z,0.80
2023-11-07T15:00:57.971Z,1.07
2023-11-07T15:03:26.553Z,1.03
2023-11-07T15:05:56.613Z,0.97
2023-11-07T15:08:24.955Z,0.67
2023-11-07T15:10:54.099Z,0.70
2023-11-07T15:13:22.343Z,1.20
2023-11-07T15:15:51.057Z,0.80
2023-11-07T15:18:24.564Z,0.90
2023-11-07T15:20:53.781Z,0.70
2023-11-07T15:23:23.677Z,1.00
2023-11-07T15:25:52.055Z,0.90
2023-11-07T15:28:20.977Z,0.93
2023-11-07T15:30:49.685Z,0.80
2023-11-07T15:33:18.405Z,0.80
2023-11-07T15:35:46.781Z,0.70
2023-11-07T15:38:15.121Z,1.10
2023-11-07T15:40:44.956Z,0.60
2023-11-07T15:43:13.281Z,1.00
2023-11-07T15:45:42.992Z,0.73
2023-11-07T15:48:12.476Z,1.00
2023-11-07T15:50:42.553Z,1.10
2023-11-07T15:53:12.705Z,0.97
2023-11-07T15:55:42.825Z,0.97
2023-11-07T15:58:14.279Z,0.80
2023-11-07T16:00:44.212Z,1.07
2023-11-07T16:03:13.732Z,0.83
2023-11-07T16:05:44.043Z,0.80
2023-11-07T16:08:12.285Z,1.10
2023-11-07T16:10:40.573Z,1.53
2023-11-07T16:13:10.672Z,1.00
2023-11-07T16:15:40.441Z,1.03
2023-11-07T16:18:08.888Z,1.00
2023-11-07T16:20:37.354Z,1.20
2023-11-07T16:23:06.944Z,1.20
2023-11-07T16:25:35.271Z,1.10
2023-11-07T16:28:06.169Z,1.17
2023-11-07T16:30:34.924Z,1.10
2023-11-07T16:33:05.332Z,1.00
2023-11-07T16:35:33.827Z,1.80
2023-11-07T16:38:02.473Z,1.20
2023-11-07T16:40:30.731Z,1.20
2023-11-07T16:42:58.987Z,1.17
2023-11-07T16:45:28.136Z,1.20
2023-11-07T16:47:56.546Z,1.17
2023-11-07T16:50:26.423Z,1.27
2023-11-07T16:52:55.376Z,1.30
2023-11-07T16:55:23.972Z,1.20
2023-11-07T16:57:52.220Z,1.40
2023-11-07T17:00:20.682Z,1.40
2023-11-07T17:02:49.676Z,2.23
2023-11-07T17:05:19.172Z,1.80
2023-11-07T17:07:48.974Z,1.83
2023-11-07T17:10:17.604Z,1.70
2023-11-07T17:12:46.700Z,1.70
2023-11-07T17:15:15.236Z,1.60
2023-11-07T17:17:46.637Z,1.43
2023-11-07T17:20:15.737Z,1.90
2023-11-07T17:22:44.079Z,1.47
2023-11-07T17:25:14.377Z,1.23
2023-11-07T17:27:45.134Z,1.50
2023-11-07T17:30:13.928Z,1.93
2023-11-07T17:32:42.401Z,1.60
2023-11-07T17:35:12.351Z,1.40
2023-11-07T17:37:44.801Z,1.80
2023-11-07T17:40:16.577Z,1.83
2023-11-07T17:42:45.547Z,1.53
2023-11-07T17:45:14.555Z,1.37
2023-11-07T17:47:43.252Z,1.30
2023-11-07T17:50:12.647Z,1.40
2023-11-07T17:52:41.366Z,1.60
2023-11-07T17:55:10.446Z,1.90
2023-11-07T17:57:40.129Z,1.60
2023-11-07T18:00:09.470Z,1.60
2023-11-07T18:02:44.048Z,1.70
2023-11-07T18:05:14.365Z,1.60
2023-11-07T18:07:42.765Z,1.70
2023-11-07T18:10:11.358Z,1.83
2023-11-07T18:12:41.101Z,1.33
2023-11-07T18:15:10.306Z,2.10
2023-11-07T18:17:38.756Z,2.23
2023-11-07T18:20:13.081Z,1.73
2023-11-07T18:22:42.005Z,2.10
2023-11-07T18:25:10.935Z,2.57
2023-11-07T18:27:41.999Z,2.90
2023-11-07T18:30:10.652Z,3.77
2023-11-07T18:32:39.280Z,4.37
2023-11-07T18:35:08.531Z,3.27
2023-11-07T18:37:36.773Z,2.30
2023-11-07T18:40:07.009Z,2.33
2023-11-07T18:42:35.856Z,2.30
2023-11-07T18:45:09.579Z,2.10
2023-11-07T18:47:38.032Z,2.67
2023-11-07T18:50:13.057Z,2.20
2023-11-07T18:52:42.334Z,1.97
2023-11-07T18:55:10.923Z,2.10
2023-11-07T18:57:39.469Z,2.13
2023-11-07T19:00:11.109Z,2.67
2023-11-07T19:02:39.690Z,2.20
2023-11-07T19:05:08.469Z,2.13
2023-11-07T19:07:36.767Z,2.37
2023-11-07T19:10:05.715Z,2.13
2023-11-07T19:12:34.032Z,2.17
2023-11-07T19:15:02.488Z,1.80
2023-11-07T19:17:32.918Z,2.40
2023-11-07T19:20:01.246Z,3.97
2023-11-07T19:22:30.720Z,2.73
2023-11-07T19:24:59.212Z,2.97
2023-11-07T19:27:27.700Z,3.00
2023-11-07T19:29:55.938Z,1.87
2023-11-07T19:32:24.221Z,2.20
2023-11-07T19:34:54.089Z,2.27
2023-11-07T19:37:22.366Z,2.10
2023-11-07T19:39:52.263Z,2.60
2023-11-07T19:42:22.869Z,3.37
2023-11-07T19:44:53.105Z,2.47
2023-11-07T19:47:21.403Z,2.17
2023-11-07T19:49:49.954Z,2.23
2023-11-07T19:52:20.046Z,2.40
2023-11-07T19:54:49.814Z,2.40
2023-11-07T19:57:19.117Z,2.63
2023-11-07T19:59:47.680Z,2.13
2023-11-07T20:02:18.413Z,2.67
2023-11-07T20:04:46.920Z,2.57
2023-11-07T20:07:15.217Z,2.50
2023-11-07T20:09:47.113Z,2.60
2023-11-07T20:12:15.515Z,2.17
2023-11-07T20:14:43.778Z,3.00
2023-11-07T20:17:14.613Z,2.60
2023-11-07T20:19:43.596Z,2.33
2023-11-07T20:22:11.879Z,2.63
2023-11-07T20:24:40.230Z,3.37
2023-11-07T20:27:09.998Z,3.03
2023-11-07T20:29:38.961Z,3.13
2023-11-07T20:32:07.534Z,3.10
2023-11-07T20:34:35.997Z,3.40
2023-11-07T20:37:04.609Z,2.47
2023-11-07T20:39:32.989Z,2.63
2023-11-07T20:42:01.905Z,2.37
2023-11-07T20:44:35.717Z,2.00
2023-11-07T20:47:09.908Z,2.13
2023-11-07T20:49:43.998Z,2.10
2023-11-07T20:52:22.685Z,2.40
2023-11-07T20:54:56.100Z,2.60
2023-11-07T20:57:24.915Z,2.83
2023-11-07T20:59:55.058Z,2.90
2023-11-07T21:02:24.217Z,2.67
2023-11-07T21:04:55.580Z,2.17
2023-11-07T21:07:24.230Z,2.40
2023-11-07T21:09:52.805Z,3.00
2023-11-07T21:12:21.466Z,3.00
2023-11-07T21:14:51.261Z,2.60
2023-11-07T21:17:21.625Z,2.50
2023-11-07T21:19:49.907Z,2.27
2023-11-07T21:22:18.165Z,2.70
2023-11-07T21:24:46.589Z,3.33
2023-11-07T21:27:15.723Z,2.90
2023-11-07T21:29:43.993Z,2.90
2023-11-07T21:32:12.241Z,2.70
2023-11-07T21:34:42.171Z,2.63
2023-11-07T21:37:11.573Z,4.57
2023-11-07T21:39:41.400Z,7.77
2023-11-07T21:42:11.051Z,4.33
2023-11-07T21:44:39.509Z,4.03
2023-11-07T21:47:07.935Z,6.00
2023-11-07T21:49:36.204Z,3.43
2023-11-07T21:52:07.082Z,2.80
2023-11-07T21:54:35.387Z,2.90
2023-11-07T21:57:03.967Z,2.40
2023-11-07T21:59:32.299Z,2.90
2023-11-07T22:02:00.705Z,2.40
2023-11-07T22:04:28.974Z,2.57
2023-11-07T22:06:57.701Z,2.53
2023-11-07T22:09:27.347Z,2.53
2023-11-07T22:11:55.717Z,2.20
2023-11-07T22:14:24.027Z,2.27
2023-11-07T22:16:52.244Z,2.97
2023-11-07T22:19:20.629Z,2.20
2023-11-07T22:21:49.188Z,2.90
2023-11-07T22:24:17.524Z,2.90
2023-11-07T22:26:48.145Z,2.20
2023-11-07T22:29:16.465Z,2.97
2023-11-07T22:31:45.382Z,2.67
2023-11-07T22:34:14.162Z,2.13
2023-11-07T22:36:42.497Z,2.50
2023-11-07T22:39:11.625Z,2.43
2023-11-07T22:41:39.900Z,2.10
2023-11-07T22:44:09.571Z,2.43
2023-11-07T22:46:37.921Z,2.07
2023-11-07T22:49:06.428Z,2.27
2023-11-07T22:51:34.681Z,2.00
2023-11-07T22:54:03.106Z,2.30
2023-11-07T22:56:31.501Z,1.90
2023-11-07T22:58:59.751Z,2.30
2023-11-07T23:01:31.207Z,1.93
2023-11-07T23:03:59.534Z,2.00
2023-11-07T23:06:27.905Z,2.17
2023-11-07T23:08:56.191Z,2.33
2023-11-07T23:11:24.450Z,2.73
2023-11-07T23:13:52.735Z,2.80
2023-11-07T23:16:21.201Z,2.70
2023-11-07T23:18:50.966Z,2.40
2023-11-07T23:21:19.418Z,2.70
2023-11-07T23:23:47.849Z,2.47
2023-11-07T23:26:16.841Z,2.27
2023-11-07T23:28:45.271Z,4.53
2023-11-07T23:31:13.534Z,2.27
2023-11-07T23:33:42.010Z,2.40
2023-11-07T23:36:11.905Z,2.40
2023-11-07T23:38:41.184Z,2.40
2023-11-07T23:41:09.559Z,2.20
2023-11-07T23:43:38.202Z,3.17
2023-11-07T23:46:06.497Z,2.50
2023-11-07T23:48:35.579Z,2.43
2023-11-07T23:51:04.780Z,2.40
2023-11-07T23:53:34.536Z,2.00
2023-11-07T23:56:03.090Z,2.40
2023-11-07T23:58:31.332Z,2.40
